Weather observations for the past three days for
Majuro Atoll - NWS Office
| Date | Time (+12) | Wind (kph) | Vis. (km) | Weather | Sky Cond. | Temperature (ºC) | Relative Humidity | Wind Chill (°C) | Heat Index (°C) | Pressure | Precipitation (cm) | ||||||
|---|---|---|---|---|---|---|---|---|---|---|---|---|---|---|---|---|---|
| Air | Dwpt | 6 hour | altimeter (cm) | sea level (mb) | 1 hr | 3 hr | 6 hr | ||||||||||
| Max. | Min. | ||||||||||||||||
| 08 | 06:51 | E 9 | 22.53 | Light Rain | SCT014 SCT045 BKN110 OVC130 | 26.7 | 24.3 | 87% | 30 | 75.77 | 1010.0 | ||||||
| 08 | 05:52 | E 22 | 19.31 | Mostly Cloudy | SCT014TCU SCT045 BKN110 | 26.6 | 24.4 | 27 | 26.3 | 88% | 29 | 75.74 | 1009.9 | 2.16 | |||
| 08 | 04:57 | E 28 | 24.14 | Mostly Cloudy | SCT014TCU SCT045 BKN110 | 26.7 | 24.4 | 87% | 30 | 75.72 | 1009.6 | ||||||
| 08 | 03:54 | E 20 | 24.14 | Mostly Cloudy | SCT014TCU SCT045 BKN110 | 26.9 | 24.8 | 88% | 30 | 75.69 | 1009.0 | ||||||
| 08 | 02:58 | E 11 | 24.14 | Mostly Cloudy | SCT014TCU SCT045 BKN110 | 26.3 | 24.3 | 89% | 29 | 75.69 | 1009.0 | 1.96 | |||||
| 08 | 01:50 | E 17 | 19.31 | Light Showers Rain | SCT014TCU SCT050 OVC110 | 27 | 24.8 | 88% | 31 | 75.72 | 1009.4 | ||||||
| 08 | 00:56 | E 15 | 24.14 | Overcast | SCT014TCU SCT050 OVC110 | 26.4 | 24.3 | 88% | 29 | 75.77 | 1010.0 | ||||||
| 07 | 23:55 | E 17 | 19.31 | Light Showers Rain | SCT014TCU SCT050 OVC110 | 26.5 | 24.1 | 28.5 | 26.5 | 87% | 29 | 75.82 | 1010.9 | 0.15 | |||
| 07 | 22:55 | SE 31 | 24.14 | Overcast | SCT014TCU SCT050 OVC110 | 27.1 | 24.7 | 87% | 31 | 75.79 | 1010.3 | ||||||
| 07 | 21:56 | E 24 | 24.14 | Overcast | FEW015 SCT050 BKN120 OVC300 | 28.5 | 24.8 | 80% | 33 | 75.82 | 1010.7 | ||||||
| 07 | 20:53 | E 24 | 24.14 | Overcast | FEW015 SCT050 BKN120 OVC300 | 28.4 | 24.5 | 79% | 33 | 75.79 | 1010.3 | ||||||
| 07 | 19:50 | E 28 | 24.14 | Mostly Cloudy | FEW014TCU SCT050 BKN110 | 28.2 | 24.6 | 81% | 33 | 75.74 | 1009.8 | ||||||
| 07 | 18:52 | NE 26 | 24.14 | Mostly Cloudy | FEW014TCU SCT050 BKN110 | 27.8 | 24.6 | 83% | 32 | 75.67 | 1008.8 | ||||||
| 07 | 16:58 | E 22 | 24.14 | Mostly Cloudy | FEW015 SCT050 BKN120 | 30.1 | 24.8 | 73% | 36 | 75.62 | 1008.0 | ||||||
| 07 | 15:58 | N 26 | 24.14 | A Few Clouds | FEW016 | 30.5 | 25 | 72% | 37 | 75.54 | 1007.2 | ||||||
| 07 | 14:58 | E 22 | 24.14 | A Few Clouds | FEW016 | 30.6 | 24.9 | 72% | 37 | 75.54 | 1007.1 | ||||||
| 07 | 13:58 | NE 22 | 24.14 | A Few Clouds | FEW016 | 30.3 | 24.8 | 72% | 36 | 75.57 | 1007.4 | ||||||
| 07 | 10:58 | NE 26 | 24.14 | A Few Clouds | FEW016 | 30.9 | 25.1 | 71% | 38 | 75.72 | 1009.4 | ||||||
| 07 | 09:58 | NE 19 | 24.14 | A Few Clouds | FEW015 | 30.7 | 25.1 | 72% | 37 | 75.69 | 1009.3 | ||||||
| 07 | 08:58 | E 26 | 24.14 | Mostly Cloudy | FEW015 BKN300 | 30.1 | 24.6 | 72% | 36 | 75.69 | 1009.0 | ||||||
| 07 | 07:56 | E 31 | 24.14 | Mostly Cloudy | FEW015 BKN300 | 29.5 | 24.2 | 73% | 35 | 75.64 | 1008.4 | ||||||
| 07 | 06:55 | E 20 | 24.14 | Mostly Cloudy | FEW015 BKN300 | 28.9 | 24.3 | 76% | 34 | 75.59 | 1007.8 | ||||||
| 07 | 05:54 | E 22 | 24.14 | Mostly Cloudy | FEW015 BKN300 | 28.8 | 24 | 28.8 | 27.6 | 75% | 33 | 75.54 | 1007.2 | 0.18 | |||
| 07 | 04:50 | E 15 | 24.14 | Mostly Cloudy | FEW015 BKN300 | 28.7 | 23.8 | 75% | 33 | 75.54 | 1007.1 | ||||||
| 07 | 03:50 | E 30 | 24.14 | Mostly Cloudy | FEW015 SCT050 BKN300 | 28.6 | 23.9 | 76% | 33 | 75.57 | 1007.3 | ||||||
| 07 | 02:55 | E 24 | 24.14 | Mostly Cloudy | FEW015 SCT050 BKN300 | 28.4 | 24.1 | 78% | 33 | 75.57 | 1007.4 | 0.18 | |||||
| 07 | 01:56 | E 17 | 24.14 | Overcast | FEW014 SCT050 BKN110 OVC300 | 27.6 | 24.3 | 82% | 31 | 75.62 | 1008.2 | ||||||
| 07 | 00:54 | E 19 | 24.14 | Overcast | FEW015 SCT050 BKN120 OVC300 | 28.6 | 24.8 | 80% | 34 | 75.69 | 1009.0 | ||||||
| 06 | 23:55 | N 30 | 24.14 | Overcast | SCT014TCU SCT050 OVC110 | 27.9 | 24.6 | 28.8 | 27.9 | 82% | 32 | 75.74 | 1009.8 | ||||
| 06 | 22:54 | E 15 | 24.14 | Overcast | FEW015 SCT050 BKN120 OVC300 | 28.5 | 24.9 | 81% | 34 | 75.77 | 1010.1 | ||||||
| 06 | 21:50 | E 9 | 24.14 | Overcast | FEW015 SCT050 BKN120 OVC300 | 28.3 | 24.1 | 78% | 33 | 75.77 | 1010.3 | ||||||
| 06 | 20:50 | E 7 | 24.14 | Overcast | FEW015 SCT050 BKN120 OVC300 | 28.3 | 24 | 78% | 32 | 75.79 | 1010.3 | ||||||
| 06 | 19:50 | E 11 | 24.14 | Overcast | FEW015 SCT050 BKN120 OVC300 | 28.4 | 23.8 | 76% | 32 | 75.72 | 1009.6 | ||||||
| 06 | 18:50 | E 13 | 24.14 | Overcast | FEW015 SCT050 BKN120 OVC300 | 28.8 | 24.9 | 79% | 34 | 75.69 | 1009.0 | ||||||
| 06 | 17:50 | E 11 | 24.14 | Overcast | FEW015 SCT050 BKN120 OVC300 | 28.8 | 24.4 | 29.5 | 28.8 | 77% | 34 | 75.64 | 1008.4 | ||||
| 06 | 16:50 | E 11 | 24.14 | Overcast | FEW015 SCT050 BKN120 OVC300 | 29 | 24.3 | 76% | 34 | 75.59 | 1007.8 | ||||||
| 06 | 15:50 | E 11 | 24.14 | Overcast | FEW015 SCT050 BKN120 OVC300 | 29.5 | 24.9 | 76% | 35 | 75.62 | 1008.0 | ||||||
| 06 | 14:57 | E 11 | 24.14 | Overcast | FEW015 SCT050 BKN120 OVC300 | 29.3 | 24.9 | 77% | 35 | 75.64 | 1008.6 | ||||||
| 06 | 13:50 | E 13 | 24.14 | Overcast | FEW015 SCT050 BKN120 OVC300 | 28.9 | 25 | 80% | 34 | 75.64 | 1008.6 | ||||||
| 06 | 12:58 | NE 9 | 24.14 | Overcast | SCT014 BKN050 BKN110 OVC300 | 29.3 | 24.8 | 77% | 35 | 75.69 | 1009.2 | ||||||
| 06 | 10:58 | E 9 | 24.14 | Overcast | SCT014 BKN050 BKN110 OVC300 | 29.3 | 24.9 | 77% | 35 | 75.82 | 1010.8 | ||||||
| 06 | 09:58 | E 15 | 24.14 | Overcast | SCT014 BKN050 BKN110 OVC300 | 28.9 | 25 | 80% | 34 | 75.82 | 1010.9 | ||||||
| 06 | 08:58 | E 15 | 24.14 | Overcast | SCT014 BKN050 BKN110 OVC300 | 28.5 | 25.1 | 82% | 34 | 75.82 | 1010.9 | 0.38 | |||||
| 06 | 06:50 | E 9 | 19.31 | Light Showers Rain | SCT014TCU BKN045 OVC110 | 26.1 | 24 | 88% | 28 | 75.82 | 1010.7 | ||||||
| 06 | 05:52 | E 9 | 22.53 | Light Rain | SCT014 BKN045 BKN110 OVC130 | 25.9 | 23.8 | 27.5 | 25.8 | 88% | 28 | 75.74 | 1009.9 | 0.94 | |||
| 06 | 04:51 | E 13 | 19.31 | Light Showers Rain | SCT014TCU BKN045 BKN110 | 26.1 | 24 | 88% | 28 | 75.69 | 1009.2 | ||||||
| 06 | 03:53 | E 9 | 24.14 | Overcast | FEW015 BKN050 BKN120 OVC300 | 27.5 | 24.8 | 85% | 32 | 75.64 | 1008.6 | ||||||
| 06 | 02:51 | E 9 | 24.14 | Overcast | FEW014 BKN045 BKN120 OVC300 | 27.2 | 24.6 | 86% | 31 | 75.67 | 1008.9 | 0.08 | |||||
| 06 | 01:50 | E 13 | 19.31 | Light Showers Rain | SCT014TCU BKN045 BKN110 | 27 | 24.7 | 87% | 30 | 75.69 | 1009.2 | ||||||
| 06 | 00:50 | E 15 | 24.14 | Overcast | FEW014TCU SCT045 BKN120 OVC300 | 26.6 | 24.5 | 88% | 29 | 75.77 | 1010.0 | ||||||
| 05 | 23:51 | Vrbl 6 | 24.14 | Overcast | FEW014TCU SCT045 BKN120 OVC300 | 25.8 | 24.3 | 26.3 | 25.5 | 91% | 28 | 75.82 | 1010.9 | 1.57 | |||
| 05 | 22:51 | Vrbl 7 | 19.31 | Light Showers Rain | SCT014TCU SCT045 BKN110 | 25.9 | 24 | 89% | 28 | 75.82 | 1010.9 | ||||||
| 05 | 21:50 | E 7 | 17.70 | Light Showers Rain | SCT014TCU SCT045 BKN110 BKN130 | 25.5 | 23.5 | 89% | 27 | 75.84 | 1011.3 | ||||||
| 05 | 20:57 | E 11 | 22.53 | Light Rain | SCT014 SCT045 BKN110 BKN130 | 26.3 | 24.4 | 89% | 29 | 75.82 | 1010.9 | 0.91 | |||||
| 05 | 19:50 | E 7 | 22.53 | Light Rain | SCT014 SCT045 BKN110 BKN130 | 26.1 | 23.7 | 87% | 28 | 75.69 | 1009.0 | ||||||
| 05 | 18:50 | E 9 | 24.14 | Overcast | FEW014TCU SCT045 BKN110 OVC300 | 26.3 | 24 | 87% | 29 | 75.69 | 1009.0 | ||||||
| 05 | 17:50 | E 11 | 22.53 | Light Rain | SCT014 SCT045 BKN110 BKN130 | 26 | 23.2 | 30.9 | 26 | 85% | 28 | 75.62 | 1008.1 | 0.28 | |||
| 05 | 16:50 | E 9 | 24.14 | Overcast | FEW014TCU SCT050 BKN120 OVC300 | 29.1 | 25.2 | 80% | 35 | 75.59 | 1007.8 | ||||||
| 05 | 15:50 | NE 13 | 17.70 | Light Showers Rain | SCT014TCU SCT045 BKN110 | 29 | 24.8 | 78% | 34 | 75.54 | 1007.1 | ||||||
| 05 | 14:54 | E 11 | 24.14 | Overcast | FEW015 SCT050 BKN120 OVC300 | 30.4 | 25.2 | 74% | 37 | 75.54 | 1007.1 | ||||||
| 05 | 13:50 | E 15 | 24.14 | Overcast | FEW015 SCT050 BKN120 OVC300 | 30.7 | 25.7 | 75% | 38 | 75.54 | 1007.2 | ||||||
| 05 | 12:50 | E 13 | 24.14 | Overcast | FEW015 SCT050 BKN120 OVC300 | 30.9 | 25.8 | 74% | 39 | 75.57 | 1007.3 | ||||||
| 05 | 10:58 | E 24 | 24.14 | Overcast | FEW015 SCT050 OVC300 | 30.8 | 25 | 71% | 37 | 75.67 | 1008.8 | ||||||
| 05 | 09:56 | E 22 | 24.14 | Mostly Cloudy | FEW015 SCT050 BKN300 | 30.2 | 25.1 | 74% | 37 | 75.69 | 1009.0 | ||||||
| 05 | 08:55 | E 24 | 24.14 | Mostly Cloudy | FEW015 SCT050 BKN300 | 30 | 24.8 | 74% | 36 | 75.64 | 1008.5 | ||||||
| 05 | 07:57 | E 22 | 24.14 | Overcast | FEW015 SCT050 BKN120 OVC300 | 29.5 | 24.4 | 74% | 35 | 75.59 | 1007.9 | ||||||
| Date | Time (+12) | Wind (kph) | Vis. (km) | Weather | Sky Cond. | Air | Dwpt | Max. | Min. | Relative Humidity | Wind Chill (°C) | Heat Index (°C) | altimeter (cm) | sea level (mb) | 1 hr | 3 hr | 6 hr |
| 6 hour | |||||||||||||||||
| Temperature (ºC) | Pressure | Precipitation (cm) | |||||||||||||||